Time;durP1;ratioP1;P1;durP2;ratioP2;P2;SDS_P1;SDS_P2;PMS_P1;PMS_P2;Temp;Humidity;BMP_temperature;BMP_pressure;BME280_temperature;BME280_humidity;BME280_pressure;Samples;Min_cycle;Max_cycle;Signal;HPM_P1;HPM_P2
2021/03/27 00:02:22;;;;;;;13.63;9.82;;;10.10;48.10;;;;;;5051137;28;20381;-77
2021/03/27 00:04:56;;;;;;;15.88;11.15;;;9.90;51.00;;;;;;5052235;28;20381;-78
2021/03/27 00:07:24;;;;;;;18.42;11.40;;;9.80;52.40;;;;;;5051541;28;20754;-77
2021/03/27 00:10:08;;;;;;;17.65;12.10;;;9.70;53.50;;;;;;5050661;28;20386;-77
2021/03/27 00:12:48;;;;;;;18.58;11.20;;;9.60;53.80;;;;;;5050924;28;20538;-78
2021/03/27 00:15:31;;;;;;;12.93;9.33;;;9.60;53.50;;;;;;5066753;28;20804;-76
2021/03/27 00:18:17;;;;;;;14.65;10.27;;;9.60;50.90;;;;;;5051266;28;20389;-77
2021/03/27 00:21:00;;;;;;;17.00;11.73;;;9.50;54.20;;;;;;5050633;28;20389;-78
2021/03/27 00:23:55;;;;;;;18.40;11.70;;;9.30;59.80;;;;;;5066126;28;20432;-77
2021/03/27 00:26:30;;;;;;;18.00;12.55;;;9.20;61.80;;;;;;5050627;28;20389;-77
2021/03/27 00:29:21;;;;;;;21.08;13.02;;;9.00;69.10;;;;;;5050864;28;20846;-77
2021/03/27 00:32:03;;;;;;;21.98;13.52;;;8.90;70.40;;;;;;5047647;28;20393;-77
2021/03/27 00:34:33;;;;;;;21.17;13.45;;;8.70;75.00;;;;;;5050868;28;20481;-78
2021/03/27 00:37:01;;;;;;;19.20;13.80;;;8.70;76.60;;;;;;5066081;28;20389;-78
2021/03/27 00:39:38;;;;;;;22.90;13.90;;;8.60;77.00;;;;;;5031047;28;20441;-77
2021/03/27 00:42:16;;;;;;;19.13;12.57;;;8.50;78.30;;;;;;5062843;28;20800;-78
2021/03/27 00:44:51;;;;;;;17.08;13.43;;;8.30;78.60;;;;;;5072043;28;20444;-77
2021/03/27 00:47:20;;;;;;;17.63;11.90;;;8.10;87.30;;;;;;5075511;28;20376;-78
2021/03/27 00:50:06;;;;;;;20.20;12.97;;;8.00;86.10;;;;;;5070503;28;20420;-78
2021/03/27 00:52:39;;;;;;;19.55;11.50;;;7.90;91.00;;;;;;5059482;28;20434;-78
2021/03/27 00:55:10;;;;;;;16.95;10.95;;;7.80;86.60;;;;;;5052162;28;20437;-78
2021/03/27 00:57:41;;;;;;;15.40;10.75;;;7.70;83.00;;;;;;5050951;28;20417;-77
2021/03/27 01:00:09;;;;;;;12.48;10.20;;;7.60;83.90;;;;;;5053876;28;20889;-79
2021/03/27 01:02:40;;;;;;;13.20;9.50;;;7.60;81.30;;;;;;5056209;28;20405;-78
2021/03/27 01:05:09;;;;;;;12.87;9.87;;;7.50;81.30;;;;;;5057074;28;20825;-77
2021/03/27 01:07:37;;;;;;;12.95;10.40;;;7.50;79.80;;;;;;5055576;28;20377;-77
2021/03/27 01:10:10;;;;;;;10.80;9.23;;;7.40;84.80;;;;;;5067671;28;20393;-77
2021/03/27 01:12:39;;;;;;;9.93;7.53;;;7.40;79.60;;;;;;5054769;28;20396;-78
2021/03/27 01:15:33;;;;;;;10.27;7.72;;;7.40;77.50;;;;;;5055053;28;20866;-77
2021/03/27 01:18:17;;;;;;;9.32;7.88;;;7.50;79.10;;;;;;5053350;28;20530;-78
2021/03/27 01:20:48;;;;;;;10.25;8.85;;;7.40;81.80;;;;;;5054010;28;20396;-79
2021/03/27 01:23:14;;;;;;;8.73;7.82;;;7.40;83.20;;;;;;5055884;28;20773;-79
2021/03/27 01:25:40;;;;;;;10.40;7.33;;;7.40;81.80;;;;;;5054722;28;20468;-78
2021/03/27 01:28:08;;;;;;;9.32;6.60;;;7.40;78.60;;;;;;5056698;28;20447;-79
2021/03/27 01:31:29;;;;;;;9.90;6.50;;;7.40;78.30;;;;;;5054453;28;20390;-78
2021/03/27 01:33:59;;;;;;;10.77;6.03;;;7.40;75.90;;;;;;5049757;28;20397;-78
2021/03/27 01:36:50;;;;;;;9.38;4.20;;;7.40;73.90;;;;;;5061800;28;20425;-79
2021/03/27 01:39:20;;;;;;;7.38;3.90;;;7.30;73.30;;;;;;5059712;28;20385;-77
2021/03/27 01:41:55;;;;;;;7.28;3.60;;;7.30;77.60;;;;;;5054505;28;20389;-78
2021/03/27 01:44:48;;;;;;;7.45;3.35;;;7.40;76.40;;;;;;5053964;28;20397;-77
2021/03/27 01:47:40;;;;;;;3.65;2.75;;;7.40;74.60;;;;;;5053690;28;20453;-78
2021/03/27 01:50:41;;;;;;;9.35;3.10;;;7.40;74.30;;;;;;5054032;28;20384;-78
2021/03/27 01:53:14;;;;;;;4.70;2.80;;;7.40;75.90;;;;;;5053360;28;20450;-78
2021/03/27 01:56:17;;;;;;;6.28;2.40;;;7.30;76.20;;;;;;5050485;28;20474;-78
2021/03/27 01:59:04;;;;;;;4.40;2.47;;;7.40;73.30;;;;;;5000308;28;20414;-78
2021/03/27 02:01:32;;;;;;;8.57;2.60;;;7.50;72.20;;;;;;5038150;28;20411;-78
2021/03/27 02:04:14;;;;;;;4.38;2.10;;;7.40;73.80;;;;;;5036085;28;20407;-78
2021/03/27 02:07:02;;;;;;;10.45;2.80;;;7.30;74.70;;;;;;5033878;28;20387;-76
2021/03/27 02:09:42;;;;;;;6.97;2.40;;;7.20;78.90;;;;;;5032582;28;20426;-76
2021/03/27 02:12:24;;;;;;;5.10;2.60;;;7.30;77.00;;;;;;5033075;28;20512;-77
2021/03/27 02:14:53;;;;;;;6.20;2.30;;;7.40;75.90;;;;;;5032852;28;20894;-78
2021/03/27 02:17:31;;;;;;;7.20;2.97;;;7.40;73.50;;;;;;5060422;28;20400;-77
2021/03/27 02:20:21;;;;;;;5.57;2.60;;;7.30;74.10;;;;;;5061307;28;20774;-77
2021/03/27 02:23:29;;;;;;;7.88;2.20;;;7.40;75.30;;;;;;5054917;28;20474;-78
2021/03/27 02:26:17;;;;;;;8.52;2.60;;;7.40;75.50;;;;;;5053511;28;20396;-77
2021/03/27 02:29:05;;;;;;;4.22;2.40;;;7.40;74.70;;;;;;5053292;28;20480;-77
2021/03/27 02:31:37;;;;;;;6.70;2.60;;;7.40;73.90;;;;;;5052386;28;20440;-77
2021/03/27 02:34:08;;;;;;;6.10;2.60;;;7.40;77.70;;;;;;5052942;28;20386;-78
2021/03/27 02:36:40;;;;;;;3.60;2.40;;;7.40;75.70;;;;;;5052874;28;20397;-78
2021/03/27 02:39:14;;;;;;;4.97;2.53;;;7.40;74.80;;;;;;5050878;28;20397;-78
2021/03/27 02:42:17;;;;;;;7.60;2.63;;;7.40;73.30;;;;;;5052939;28;20929;-77
2021/03/27 02:44:49;;;;;;;6.57;2.67;;;7.40;76.50;;;;;;5046798;28;20438;-77
2021/03/27 02:47:29;;;;;;;9.02;2.97;;;7.30;76.90;;;;;;5033601;28;20825;-77
2021/03/27 02:50:00;;;;;;;8.00;3.37;;;7.30;77.40;;;;;;5036892;28;20436;-78
2021/03/27 02:52:52;;;;;;;6.85;2.70;;;7.30;76.50;;;;;;5063002;28;20393;-78
2021/03/27 02:55:57;;;;;;;7.60;2.80;;;7.30;76.00;;;;;;5060235;28;20393;-77
2021/03/27 02:58:32;;;;;;;8.90;3.27;;;7.40;74.80;;;;;;5066378;28;20417;-77
2021/03/27 03:01:24;;;;;;;10.82;3.45;;;7.30;76.30;;;;;;5066450;28;20408;-79
2021/03/27 03:04:03;;;;;;;12.07;3.70;;;7.40;74.40;;;;;;5067342;28;20409;-78
2021/03/27 03:06:40;;;;;;;7.47;3.67;;;7.30;74.50;;;;;;5067953;28;20473;-78
2021/03/27 03:09:09;;;;;;;9.13;4.40;;;7.30;73.90;;;;;;5067425;28;20396;-79
2021/03/27 03:12:07;;;;;;;12.25;4.40;;;7.30;75.70;;;;;;5067995;28;20407;-79
2021/03/27 03:14:45;;;;;;;12.40;4.63;;;7.30;73.50;;;;;;5047627;28;20383;-77
2021/03/27 03:17:24;;;;;;;7.90;4.60;;;7.30;73.60;;;;;;5033283;28;20423;-76
2021/03/27 03:20:24;;;;;;;8.80;5.00;;;7.40;70.80;;;;;;5038714;28;20409;-77
2021/03/27 03:23:07;;;;;;;6.75;5.20;;;7.40;71.60;;;;;;5050918;28;20463;-76
2021/03/27 03:25:43;;;;;;;10.13;5.20;;;7.40;73.00;;;;;;5051169;28;20373;-78
2021/03/27 03:28:27;;;;;;;10.73;5.93;;;7.40;73.30;;;;;;5053167;28;20385;-78
2021/03/27 03:31:26;;;;;;;13.38;5.70;;;7.40;72.90;;;;;;5052364;28;20388;-78
2021/03/27 03:34:05;;;;;;;14.68;6.32;;;7.40;70.40;;;;;;5049657;28;20540;-77
2021/03/27 03:36:46;;;;;;;15.43;7.07;;;7.40;69.80;;;;;;5040708;28;20467;-78
2021/03/27 03:39:20;;;;;;;11.05;6.03;;;7.40;71.50;;;;;;5051358;28;20385;-77
2021/03/27 03:42:17;;;;;;;12.10;6.10;;;7.30;73.20;;;;;;5051117;28;20479;-77
2021/03/27 03:44:45;;;;;;;14.05;6.38;;;7.30;71.60;;;;;;5051012;28;20377;-76
2021/03/27 03:47:39;;;;;;;14.35;6.25;;;7.20;72.40;;;;;;5050052;28;20512;-76
2021/03/27 03:50:23;;;;;;;10.83;5.63;;;7.20;74.10;;;;;;5052631;28;20949;-76
2021/03/27 03:53:16;;;;;;;13.80;6.00;;;7.20;70.40;;;;;;5051198;28;20472;-75
2021/03/27 03:55:50;;;;;;;16.83;6.72;;;7.30;69.70;;;;;;5051703;28;20418;-76
2021/03/27 03:58:34;;;;;;;9.55;5.97;;;7.30;70.00;;;;;;5069013;23;20492;-79
2021/03/27 04:01:27;;;;;;;8.95;5.70;;;7.30;70.10;;;;;;5060650;28;20404;-77
2021/03/27 04:04:01;;;;;;;12.50;5.75;;;7.40;66.40;;;;;;5060970;28;20412;-75
2021/03/27 04:06:30;;;;;;;10.80;5.57;;;7.30;69.50;;;;;;5072193;28;20387;-75
2021/03/27 04:09:01;;;;;;;11.23;5.55;;;7.30;69.80;;;;;;5050217;28;20511;-76
2021/03/27 04:11:53;;;;;;;13.23;5.45;;;7.30;67.60;;;;;;5044550;28;20398;-77
2021/03/27 04:14:29;;;;;;;13.15;5.47;;;7.20;67.70;;;;;;5032464;28;20391;-76
2021/03/27 04:17:20;;;;;;;13.15;5.70;;;7.10;69.70;;;;;;5032023;28;20394;-77
2021/03/27 04:19:52;;;;;;;10.35;4.65;;;6.90;72.20;;;;;;5022273;28;20934;-75
2021/03/27 04:22:40;;;;;;;25.45;14.10;;;6.80;73.50;;;;;;5033015;28;20757;-77
2021/03/27 04:25:24;;;;;;;17.50;5.75;;;6.80;75.60;;;;;;5033233;28;20394;-75
2021/03/27 04:28:06;;;;;;;15.95;6.38;;;6.80;71.90;;;;;;5034639;28;20375;-77
2021/03/27 04:30:48;;;;;;;15.50;8.27;;;6.70;78.30;;;;;;5033387;28;25096;-77
2021/03/27 04:33:38;;;;;;;19.80;9.50;;;6.70;75.20;;;;;;5033243;28;20839;-77
2021/03/27 04:36:40;;;;;;;24.52;10.65;;;6.60;75.10;;;;;;5035894;28;20466;-75
2021/03/27 04:39:20;;;;;;;16.58;8.77;;;6.60;75.60;;;;;;5037786;28;20429;-78
2021/03/27 04:41:58;;;;;;;46.30;23.00;;;6.60;73.80;;;;;;5037055;28;20856;-76
2021/03/27 04:44:33;;;;;;;19.37;8.73;;;6.60;75.10;;;;;;5038735;28;20390;-77
2021/03/27 04:47:14;;;;;;;15.50;6.00;;;6.60;73.50;;;;;;5042942;28;20382;-76
2021/03/27 04:50:07;;;;;;;43.72;20.85;;;6.60;71.30;;;;;;5046742;28;20391;-75
2021/03/27 04:53:01;;;;;;;10.88;4.50;;;6.60;76.00;;;;;;5047209;28;20374;-78
2021/03/27 04:55:44;;;;;;;16.55;4.80;;;6.60;71.90;;;;;;5043087;28;20395;-76
2021/03/27 04:58:39;;;;;;;24.90;5.00;;;6.60;70.30;;;;;;5037101;28;20398;-77
2021/03/27 05:01:42;;;;;;;14.90;4.45;;;6.50;70.60;;;;;;5042182;28;20394;-75
2021/03/27 05:04:13;;;;;;;20.23;4.43;;;6.50;71.10;;;;;;5046935;28;20403;-76
2021/03/27 05:06:42;;;;;;;16.45;4.88;;;6.80;69.30;;;;;;5050085;28;20451;-75
2021/03/27 05:09:16;;;;;;;11.88;4.10;;;6.90;66.20;;;;;;5051989;28;20370;-74
2021/03/27 05:11:44;;;;;;;12.32;4.50;;;6.90;66.50;;;;;;5046057;28;20520;-74
2021/03/27 05:14:43;;;;;;;12.60;4.10;;;7.00;63.60;;;;;;5045761;28;20399;-77
2021/03/27 05:17:35;;;;;;;13.77;4.30;;;7.10;60.60;;;;;;5020037;28;20404;-76
2021/03/27 05:20:18;;;;;;;12.00;3.80;;;7.10;60.60;;;;;;5014825;28;20413;-77
2021/03/27 05:22:52;;;;;;;13.52;4.60;;;7.20;59.80;;;;;;5021888;28;20411;-77
2021/03/27 05:25:31;;;;;;;15.35;5.28;;;7.30;59.60;;;;;;5017619;28;20442;-76
2021/03/27 05:28:36;;;;;;;14.25;4.85;;;7.20;57.90;;;;;;5015957;28;20892;-76
2021/03/27 05:31:24;;;;;;;11.77;4.63;;;7.10;59.90;;;;;;5032895;28;20406;-77
2021/03/27 05:34:17;;;;;;;17.55;6.80;;;7.20;59.30;;;;;;5036300;28;20389;-77
2021/03/27 05:37:19;;;;;;;15.80;5.35;;;7.20;60.00;;;;;;5035589;28;20507;-76
2021/03/27 05:40:02;;;;;;;16.13;6.25;;;7.30;58.40;;;;;;5035345;28;20416;-77
2021/03/27 05:42:52;;;;;;;17.15;4.55;;;7.30;58.40;;;;;;5038886;28;20789;-77
2021/03/27 05:45:56;;;;;;;16.27;4.20;;;7.30;56.90;;;;;;5039496;28;20398;-75
2021/03/27 05:49:08;;;;;;;16.27;4.10;;;7.40;56.70;;;;;;5024410;28;20729;-77
2021/03/27 05:51:56;;;;;;;11.60;4.00;;;7.30;56.30;;;;;;5038117;28;20387;-76
2021/03/27 05:54:40;;;;;;;20.52;4.13;;;7.40;57.60;;;;;;5037750;28;20382;-77
2021/03/27 05:57:36;;;;;;;8.70;3.88;;;7.40;57.40;;;;;;5034342;28;20399;-76
2021/03/27 06:00:29;;;;;;;12.80;4.40;;;7.50;56.80;;;;;;5037911;28;20403;-77
2021/03/27 06:03:17;;;;;;;11.95;4.43;;;7.60;56.20;;;;;;5034770;28;20522;-77
2021/03/27 06:05:52;;;;;;;13.10;5.18;;;7.60;55.10;;;;;;5037872;28;20413;-76
2021/03/27 06:08:39;;;;;;;16.52;4.88;;;7.60;56.20;;;;;;5037554;28;20444;-77
2021/03/27 06:11:26;;;;;;;12.55;4.70;;;7.70;55.70;;;;;;5040830;28;20383;-76
2021/03/27 06:14:10;;;;;;;13.30;4.00;;;7.70;56.90;;;;;;5036664;28;20426;-76
2021/03/27 06:16:44;;;;;;;35.22;19.10;;;7.80;55.70;;;;;;5037261;28;20379;-76
2021/03/27 06:19:57;;;;;;;15.07;4.60;;;8.00;56.10;;;;;;5041732;28;20387;-77
2021/03/27 06:22:46;;;;;;;21.60;9.07;;;7.90;55.10;;;;;;5012467;28;20464;-75
2021/03/27 06:25:47;;;;;;;20.17;4.60;;;8.10;55.00;;;;;;5005454;28;20421;-76
2021/03/27 06:28:45;;;;;;;16.88;4.57;;;8.10;53.00;;;;;;5003604;28;20406;-76
2021/03/27 06:31:38;;;;;;;17.52;5.00;;;8.20;51.70;;;;;;5044104;28;20375;-76
2021/03/27 06:34:28;;;;;;;16.85;4.07;;;8.20;52.10;;;;;;5037701;28;20393;-76
2021/03/27 06:36:53;;;;;;;18.20;4.60;;;8.20;52.00;;;;;;5038135;28;20391;-76
2021/03/27 06:39:56;;;;;;;18.55;4.20;;;8.10;52.50;;;;;;5038417;28;20397;-76
2021/03/27 06:42:37;;;;;;;19.83;4.40;;;8.10;54.00;;;;;;5033774;28;20422;-78
2021/03/27 06:45:38;;;;;;;14.87;3.67;;;8.10;51.80;;;;;;5033910;28;20485;-77
2021/03/27 06:48:35;;;;;;;13.05;3.70;;;8.10;52.20;;;;;;5033342;28;20447;-77
2021/03/27 06:51:22;;;;;;;13.18;3.30;;;7.80;54.10;;;;;;5034276;28;20478;-75
2021/03/27 06:54:23;;;;;;;11.27;3.75;;;7.80;56.80;;;;;;5033365;28;20427;-76
2021/03/27 06:57:12;;;;;;;11.50;3.27;;;7.70;58.80;;;;;;5035246;28;20485;-75
2021/03/27 07:00:02;;;;;;;11.55;3.30;;;7.60;61.90;;;;;;5033795;28;20390;-75
2021/03/27 07:02:47;;;;;;;10.27;3.60;;;7.60;62.30;;;;;;5037314;28;20418;-78
2021/03/27 07:05:31;;;;;;;13.80;3.42;;;7.70;62.80;;;;;;5036377;28;20387;-77
2021/03/27 07:08:04;;;;;;;15.35;3.80;;;7.70;60.80;;;;;;5048938;28;20381;-83
2021/03/27 07:11:07;;;;;;;13.20;3.50;;;7.80;58.80;;;;;;5049266;28;20438;-81
2021/03/27 07:14:11;;;;;;;15.60;3.50;;;7.80;59.40;;;;;;5035331;28;20396;-85
2021/03/27 07:17:04;;;;;;;8.40;3.20;;;7.90;59.20;;;;;;5046922;28;20415;-83
2021/03/27 07:20:01;;;;;;;9.57;3.30;;;7.80;55.10;;;;;;5040835;28;20846;-85
2021/03/27 07:22:41;;;;;;;12.95;3.30;;;7.70;58.60;;;;;;5032937;28;20456;-75
2021/03/27 07:25:31;;;;;;;9.80;3.10;;;7.70;58.90;;;;;;5032775;28;20411;-77
2021/03/27 07:28:17;;;;;;;9.82;3.63;;;7.70;60.50;;;;;;5034873;28;20468;-81
2021/03/27 07:31:20;;;;;;;8.80;3.40;;;7.80;60.80;;;;;;5020711;28;20426;-79
2021/03/27 07:34:22;;;;;;;9.60;2.90;;;7.70;58.30;;;;;;5045652;28;20777;-82
2021/03/27 07:37:00;;;;;;;9.15;3.22;;;7.60;55.80;;;;;;5047675;28;20406;-78
2021/03/27 07:39:31;;;;;;;5.53;2.20;;;7.50;55.70;;;;;;5043994;28;20400;-79
2021/03/27 07:42:17;;;;;;;6.45;2.00;;;7.50;52.70;;;;;;5034421;28;20428;-76
2021/03/27 07:45:12;;;;;;;4.40;1.67;;;7.40;53.50;;;;;;5032210;28;20375;-76
2021/03/27 07:47:59;;;;;;;6.65;2.10;;;7.40;53.10;;;;;;5042284;28;20387;-78
2021/03/27 07:50:46;;;;;;;3.27;1.90;;;7.40;53.80;;;;;;5038358;28;20397;-78
2021/03/27 07:53:26;;;;;;;3.47;1.65;;;7.70;51.50;;;;;;5040377;28;20398;-80
2021/03/27 07:56:20;;;;;;;4.93;1.50;;;7.80;51.00;;;;;;5040827;28;20416;-80
2021/03/27 07:58:54;;;;;;;6.70;1.85;;;7.70;49.80;;;;;;5039421;28;20438;-81
2021/03/27 08:01:41;;;;;;;6.25;1.73;;;8.00;50.10;;;;;;5042326;28;20411;-80
2021/03/27 08:04:34;;;;;;;6.57;1.73;;;8.10;46.80;;;;;;5050252;28;20417;-80
2021/03/27 08:07:31;;;;;;;9.68;1.90;;;8.20;45.40;;;;;;5049342;28;20406;-78
2021/03/27 08:10:05;;;;;;;4.30;1.60;;;8.30;47.20;;;;;;5043090;28;20470;-78
2021/03/27 08:12:49;;;;;;;6.43;1.70;;;8.60;43.20;;;;;;5046458;28;20413;-79
2021/03/27 08:15:27;;;;;;;6.40;2.10;;;8.90;40.00;;;;;;5051288;28;20421;-81
2021/03/27 08:18:09;;;;;;;6.22;2.00;;;9.00;38.60;;;;;;5048664;28;20474;-78
2021/03/27 08:20:57;;;;;;;5.07;2.42;;;9.10;41.30;;;;;;5049752;28;20383;-80
2021/03/27 08:23:46;;;;;;;10.55;2.13;;;9.10;37.80;;;;;;5047875;28;20406;-78
2021/03/27 08:26:55;;;;;;;6.88;2.50;;;8.80;38.50;;;;;;5039026;28;20395;-79
2021/03/27 08:29:43;;;;;;;8.90;2.20;;;8.70;40.10;;;;;;5005878;28;20413;-77
2021/03/27 08:32:27;;;;;;;8.70;2.93;;;8.50;42.10;;;;;;5039716;28;20744;-78
2021/03/27 08:35:15;;;;;;;8.18;2.70;;;8.60;40.70;;;;;;5040852;28;20399;-79
2021/03/27 08:38:07;;;;;;;9.40;2.38;;;8.90;38.00;;;;;;5020184;28;20385;-74
2021/03/27 08:41:11;;;;;;;6.40;2.80;;;8.90;37.50;;;;;;5020482;28;20373;-78
2021/03/27 08:43:55;;;;;;;9.30;2.70;;;8.90;39.20;;;;;;5043856;28;20433;-78
2021/03/27 08:46:39;;;;;;;6.82;3.10;;;9.30;36.90;;;;;;5032317;28;20913;-76
2021/03/27 08:49:27;;;;;;;10.00;2.47;;;9.40;35.50;;;;;;5031854;28;20496;-77
2021/03/27 08:52:26;;;;;;;11.85;3.17;;;9.60;33.30;;;;;;5031794;28;20380;-77
2021/03/27 08:55:09;;;;;;;8.63;2.70;;;9.40;33.30;;;;;;5029960;28;20377;-75
2021/03/27 08:58:08;;;;;;;9.35;2.40;;;9.10;36.10;;;;;;5044905;28;20466;-73
2021/03/27 09:00:36;;;;;;;9.70;2.80;;;9.00;34.50;;;;;;5051069;28;20387;-75
2021/03/27 09:03:33;;;;;;;8.55;2.58;;;9.10;35.10;;;;;;5041808;28;20414;-76
2021/03/27 09:06:31;;;;;;;13.57;2.35;;;9.10;34.20;;;;;;5020147;28;20476;-76
2021/03/27 09:09:21;;;;;;;15.07;3.10;;;9.20;35.60;;;;;;5013178;28;20397;-75
2021/03/27 09:11:54;;;;;;;11.60;2.80;;;9.40;33.90;;;;;;5033791;28;20399;-75
2021/03/27 09:14:32;;;;;;;9.77;3.20;;;9.40;34.90;;;;;;5044179;28;20383;-75
2021/03/27 09:17:13;;;;;;;9.02;2.83;;;9.50;34.80;;;;;;5040030;28;20897;-75
2021/03/27 09:20:07;;;;;;;11.57;2.83;;;9.40;33.10;;;;;;5042725;28;20406;-75
2021/03/27 09:22:47;;;;;;;7.18;3.13;;;9.00;32.20;;;;;;5040317;28;20453;-76
2021/03/27 09:25:24;;;;;;;15.40;3.50;;;8.90;33.90;;;;;;5037354;28;20726;-77
2021/03/27 09:28:02;;;;;;;10.75;2.92;;;9.00;31.80;;;;;;5048970;28;20426;-75
2021/03/27 09:30:46;;;;;;;12.50;2.90;;;9.10;31.40;;;;;;5048097;28;20395;-75
2021/03/27 09:33:27;;;;;;;8.27;2.20;;;9.10;28.50;;;;;;5035110;28;20390;-74
2021/03/27 09:36:23;;;;;;;13.43;3.10;;;9.40;27.40;;;;;;5035413;28;20427;-74
2021/03/27 09:39:29;;;;;;;11.55;2.97;;;9.70;26.30;;;;;;5035006;28;20386;-75
2021/03/27 09:42:04;;;;;;;10.80;3.15;;;9.70;24.80;;;;;;5035550;28;20864;-76
2021/03/27 09:44:49;;;;;;;11.68;2.80;;;9.80;25.00;;;;;;5035112;28;20394;-76
2021/03/27 09:47:48;;;;;;;9.70;2.70;;;10.20;23.60;;;;;;5036060;28;20383;-75
2021/03/27 09:50:37;;;;;;;11.55;3.10;;;10.70;19.90;;;;;;5036713;28;20452;-77
2021/03/27 09:53:24;;;;;;;9.55;2.70;;;11.10;19.60;;;;;;5037949;28;20390;-76
2021/03/27 09:56:16;;;;;;;11.70;2.63;;;11.00;18.30;;;;;;5042758;28;20390;-76
2021/03/27 09:59:13;;;;;;;13.50;2.97;;;11.00;17.90;;;;;;5034869;28;20411;-74
2021/03/27 10:01:57;;;;;;;9.90;2.60;;;11.20;15.90;;;;;;5034724;28;20383;-75
2021/03/27 10:04:44;;;;;;;11.93;2.50;;;10.60;14.60;;;;;;5033961;28;20202;-76
2021/03/27 10:07:37;;;;;;;6.37;1.40;;;10.30;15.00;;;;;;5035722;28;20448;-75
2021/03/27 10:10:19;;;;;;;14.07;2.80;;;10.50;16.00;;;;;;5034919;28;20422;-74
2021/03/27 10:13:15;;;;;;;8.00;2.60;;;10.60;18.30;;;;;;5037139;28;20723;-74
2021/03/27 10:15:58;;;;;;;8.30;2.73;;;11.10;17.80;;;;;;5035742;28;20418;-74
2021/03/27 10:18:47;;;;;;;6.93;2.50;;;11.40;16.60;;;;;;5038939;28;20490;-74
2021/03/27 10:21:41;;;;;;;6.33;2.47;;;11.40;16.90;;;;;;5040565;28;20509;-75
2021/03/27 10:24:22;;;;;;;7.97;2.30;;;11.40;15.00;;;;;;5037947;28;21131;-74
2021/03/27 10:27:17;;;;;;;16.03;3.50;;;10.80;15.30;;;;;;5037291;28;20403;-74
2021/03/27 10:30:14;;;;;;;13.67;3.23;;;10.50;16.60;;;;;;5033865;28;20411;-76
2021/03/27 10:33:11;;;;;;;12.60;2.63;;;10.40;17.80;;;;;;5033166;28;20430;-75
2021/03/27 10:35:46;;;;;;;9.50;2.50;;;10.50;18.60;;;;;;5034078;28;20414;-75
2021/03/27 10:38:38;;;;;;;11.30;2.80;;;10.40;20.00;;;;;;5033803;28;20523;-75
2021/03/27 10:41:32;;;;;;;8.20;2.80;;;10.30;21.10;;;;;;5034396;28;20411;-75
2021/03/27 10:44:10;;;;;;;14.83;3.00;;;10.40;20.20;;;;;;5033919;28;20462;-75
2021/03/27 10:46:44;;;;;;;9.43;2.93;;;10.40;19.80;;;;;;5034407;28;20419;-75
2021/03/27 10:49:21;;;;;;;9.20;2.07;;;10.40;19.60;;;;;;5033973;28;20756;-74
2021/03/27 10:52:06;;;;;;;5.23;2.10;;;10.30;21.40;;;;;;5034171;28;20429;-75
2021/03/27 10:55:05;;;;;;;16.43;4.00;;;9.80;23.50;;;;;;5036284;28;20414;-75
2021/03/27 10:57:53;;;;;;;7.00;2.40;;;9.40;27.00;;;;;;5039446;28;20466;-74
2021/03/27 11:01:05;;;;;;;7.80;2.33;;;9.20;25.80;;;;;;5037171;28;20404;-75
2021/03/27 11:04:09;;;;;;;10.80;2.50;;;8.90;27.80;;;;;;5034881;28;20457;-74
2021/03/27 11:06:57;;;;;;;15.90;2.87;;;8.90;29.80;;;;;;5034667;28;20441;-74
2021/03/27 11:09:45;;;;;;;10.93;2.10;;;8.70;30.00;;;;;;5034739;28;20394;-74
2021/03/27 11:12:14;;;;;;;9.38;2.78;;;8.60;31.40;;;;;;5027245;28;20506;-75
2021/03/27 11:15:18;;;;;;;7.83;1.90;;;8.60;30.80;;;;;;5033773;28;20245;-73
2021/03/27 11:17:51;;;;;;;8.50;2.67;;;8.80;28.70;;;;;;5032257;28;20433;-76
2021/03/27 11:20:47;;;;;;;11.57;2.10;;;9.20;29.10;;;;;;5033088;28;20781;-75
2021/03/27 11:23:50;;;;;;;10.53;1.97;;;9.70;22.90;;;;;;5031906;28;20874;-74
2021/03/27 11:26:36;;;;;;;8.90;2.10;;;10.30;19.90;;;;;;5034886;28;20422;-74
2021/03/27 11:29:29;;;;;;;2.57;1.90;;;10.90;17.50;;;;;;5032366;28;20419;-76
2021/03/27 11:32:15;;;;;;;12.30;2.00;;;11.70;14.40;;;;;;5034681;28;20910;-73
2021/03/27 11:35:06;;;;;;;5.83;2.20;;;11.90;12.80;;;;;;5032210;28;20420;-74
2021/03/27 11:38:17;;;;;;;4.27;2.37;;;12.30;12.90;;;;;;5033542;28;20446;-74
2021/03/27 11:41:04;;;;;;;4.77;2.50;;;12.00;11.90;;;;;;5034434;28;20434;-75
2021/03/27 11:43:52;;;;;;;7.47;2.03;;;11.20;12.50;;;;;;5033408;28;20505;-76
2021/03/27 11:46:20;;;;;;;8.20;1.93;;;10.80;13.30;;;;;;5031963;28;20423;-75
2021/03/27 11:49:04;;;;;;;5.00;2.10;;;10.20;21.50;;;;;;5033211;28;20430;-75
2021/03/27 11:51:45;;;;;;;9.40;2.47;;;9.70;23.20;;;;;;5031604;28;20520;-74
2021/03/27 11:54:17;;;;;;;13.63;2.90;;;9.50;26.10;;;;;;5037356;28;20414;-76
2021/03/27 11:57:18;;;;;;;11.33;3.33;;;9.40;26.40;;;;;;5043830;28;20449;-74
2021/03/27 12:03:16;;;;;;;9.83;1.77;;;9.60;22.80;;;;;;5047915;28;20469;-76
2021/03/27 12:06:19;;;;;;;3.37;2.20;;;9.50;19.40;;;;;;5037754;28;20425;-75
2021/03/27 12:09:07;;;;;;;3.10;1.70;;;9.70;19.30;;;;;;5026323;28;20547;-76
2021/03/27 12:12:04;;;;;;;8.40;2.50;;;9.70;18.90;;;;;;5035130;28;20809;-75
2021/03/27 12:15:05;;;;;;;7.17;2.27;;;9.90;18.00;;;;;;5034201;28;20930;-74
2021/03/27 12:17:46;;;;;;;7.60;2.60;;;10.30;16.60;;;;;;5037527;28;20529;-77
2021/03/27 12:20:38;;;;;;;2.23;1.53;;;11.10;16.20;;;;;;5045900;28;20428;-74
2021/03/27 12:23:11;;;;;;;6.20;2.57;;;11.30;13.60;;;;;;5041498;28;20475;-73
2021/03/27 12:25:47;;;;;;;5.17;2.37;;;11.40;13.80;;;;;;5047315;28;20400;-74
2021/03/27 12:28:21;;;;;;;9.67;2.80;;;11.30;14.80;;;;;;5045191;28;20431;-74
2021/03/27 12:30:50;;;;;;;4.10;1.80;;;11.40;15.40;;;;;;5039715;28;20404;-75
2021/03/27 12:33:39;;;;;;;5.63;2.43;;;11.30;12.10;;;;;;5034768;28;20451;-74
2021/03/27 12:36:31;;;;;;;12.37;1.90;;;11.10;12.20;;;;;;5032179;28;20443;-74
2021/03/27 12:38:59;;;;;;;9.17;2.40;;;11.10;13.00;;;;;;5033249;28;20494;-77
2021/03/27 12:41:54;;;;;;;4.33;1.97;;;11.40;11.80;;;;;;5033329;28;20417;-76
2021/03/27 12:44:37;;;;;;;2.40;1.90;;;11.60;9.30;;;;;;5024186;28;20465;-75
2021/03/27 12:47:39;;;;;;;3.97;2.10;;;11.70;8.80;;;;;;5031617;28;20956;-74
2021/03/27 12:50:12;;;;;;;7.03;2.33;;;12.00;8.60;;;;;;4997986;28;20446;-74
2021/03/27 12:52:59;;;;;;;2.50;1.30;;;12.10;7.50;;;;;;5033292;28;20406;-75
2021/03/27 12:56:05;;;;;;;3.73;1.50;;;12.10;7.00;;;;;;5033172;28;20407;-75
2021/03/27 12:58:41;;;;;;;;;;;11.90;7.30;;;;;;5042040;28;20308;-76
2021/03/27 13:01:25;;;;;;;;;;;12.20;6.10;;;;;;5045874;28;19905;-74
2021/03/27 13:04:09;;;;;;;;;;;12.30;5.50;;;;;;5048726;28;19920;-75
2021/03/27 13:06:45;;;;;;;;;;;12.10;4.80;;;;;;5037822;28;19905;-76
2021/03/27 13:09:10;;;;;;;;;;;12.10;4.70;;;;;;5037662;28;20347;-75
2021/03/27 13:11:54;;;;;;;;;;;12.10;5.60;;;;;;5037644;28;19992;-75
2021/03/27 13:14:38;;;;;;;;;;;12.10;5.60;;;;;;5036511;28;19905;-73
2021/03/27 13:17:05;;;;;;;;;;;12.50;6.00;;;;;;5035153;28;19984;-75
2021/03/27 13:19:40;;;;;;;;;;;12.40;5.90;;;;;;5035797;28;19917;-75
2021/03/27 13:22:09;;;;;;;;;;;12.30;5.00;;;;;;5035945;28;20357;-74
2021/03/27 13:24:34;;;;;;;;;;;11.90;5.40;;;;;;5040546;28;19975;-75
2021/03/27 13:27:09;;;;;;;;;;;11.60;6.50;;;;;;5040539;28;19971;-75
2021/03/27 13:29:39;;;;;;;;;;;11.70;4.80;;;;;;5040006;28;19912;-75
2021/03/27 13:32:16;;;;;;;;;;;11.60;6.10;;;;;;5036179;28;19955;-75
2021/03/27 13:34:45;;;;;;;;;;;11.60;6.20;;;;;;5035341;28;19959;-75
2021/03/27 13:37:22;;;;;;;;;;;11.40;6.20;;;;;;5035630;28;19944;-74
2021/03/27 13:39:47;;;;;;;;;;;11.50;6.50;;;;;;5035680;28;19992;-74
2021/03/27 13:42:31;;;;;;;;;;;11.40;6.80;;;;;;5035780;28;19943;-75
2021/03/27 13:45:15;;;;;;;;;;;11.40;7.10;;;;;;5036409;28;19905;-74
2021/03/27 13:47:46;;;;;;;;;;;11.60;8.40;;;;;;5033768;28;19912;-76
2021/03/27 13:50:30;;;;;;;;;;;11.80;7.80;;;;;;5034250;28;19909;-75
2021/03/27 13:53:13;;;;;;;;;;;12.00;8.60;;;;;;5036043;28;19905;-74
2021/03/27 13:55:59;;;;;;;;;;;12.50;7.80;;;;;;5036299;28;19905;-76
2021/03/27 13:58:25;;;;;;;;;;;12.70;6.50;;;;;;5034780;28;19920;-75
2021/03/27 14:01:08;;;;;;;;;;;12.10;8.30;;;;;;5035136;28;19963;-75
2021/03/27 14:03:44;;;;;;;;;;;12.50;6.90;;;;;;5035949;28;20004;-75
2021/03/27 14:06:17;;;;;;;;;;;13.00;5.60;;;;;;5035287;28;19909;-75
2021/03/27 14:08:54;;;;;;;;;;;12.20;6.10;;;;;;5034459;28;19963;-75
2021/03/27 14:11:24;;;;;;;;;;;12.80;6.60;;;;;;5035787;28;20390;-74
2021/03/27 14:13:59;;;;;;;;;;;13.10;4.90;;;;;;5050112;28;19905;-75
2021/03/27 14:16:35;;;;;;;;;;;13.40;4.80;;;;;;5047303;28;19909;-76
2021/03/27 14:19:19;;;;;;;;;;;13.10;3.70;;;;;;5037692;28;19905;-75
2021/03/27 14:21:59;;;;;;;;;;;13.20;2.20;;;;;;5035549;28;19995;-75
2021/03/27 14:24:43;;;;;;;;;;;13.20;3.20;;;;;;5034886;28;19909;-76
2021/03/27 14:27:18;;;;;;;;;;;13.10;2.90;;;;;;5035965;28;20009;-75
2021/03/27 14:29:47;;;;;;;;;;;13.30;3.50;;;;;;5043507;28;19905;-76
2021/03/27 14:32:21;;;;;;;;;;;13.60;2.90;;;;;;5043093;28;19916;-76
2021/03/27 14:34:59;;;;;;;;;;;13.80;2.90;;;;;;5038993;28;19905;-77